Time;durP1;ratioP1;P1;durP2;ratioP2;P2;SDS_P1;SDS_P2;PMS_P1;PMS_P2;Temp;Humidity;BMP_temperature;BMP_pressure;BME280_temperature;BME280_humidity;BME280_pressure;Samples;Min_cycle;Max_cycle;Signal;HPM_P1;HPM_P2
2022/09/09 00:03:53;;;;;;;1.10;0.70;;;;;;;;;;8325232;28;20036;-57
2022/09/09 00:07:55;;;;;;;2.83;0.82;;;;;;;;;;8326259;28;20333;-59
2022/09/09 00:12:01;;;;;;;4.30;1.10;;;;;;;;;;8325979;28;20039;-57
2022/09/09 00:16:10;;;;;;;6.57;1.00;;;;;;;;;;8324815;28;20047;-59
2022/09/09 00:20:10;;;;;;;2.47;0.98;;;;;;;;;;8322474;28;20026;-58
2022/09/09 00:24:16;;;;;;;5.63;1.45;;;;;;;;;;8323660;28;20123;-58
2022/09/09 00:28:22;;;;;;;3.20;0.90;;;;;;;;;;8326038;28;20040;-58
2022/09/09 00:32:24;;;;;;;2.05;0.95;;;;;;;;;;8322845;28;20037;-58
2022/09/09 00:36:26;;;;;;;2.78;1.00;;;;;;;;;;8326150;28;20020;-57
2022/09/09 00:40:32;;;;;;;3.28;1.00;;;;;;;;;;8323119;28;20059;-58
2022/09/09 00:44:35;;;;;;;3.53;0.90;;;;;;;;;;8326837;28;20061;-58
2022/09/09 00:48:45;;;;;;;3.20;0.80;;;;;;;;;;8325092;28;20716;-59
2022/09/09 00:52:54;;;;;;;1.55;0.70;;;;;;;;;;8322356;28;20951;-59
2022/09/09 00:57:13;;;;;;;3.35;0.85;;;;;;;;;;8323634;28;20043;-57
2022/09/09 01:01:13;;;;;;;2.63;0.90;;;;;;;;;;8324702;28;20061;-59
2022/09/09 01:05:23;;;;;;;2.92;0.93;;;;;;;;;;8327714;28;20024;-58
2022/09/09 01:09:32;;;;;;;4.85;0.90;;;;;;;;;;8323560;28;20595;-59
2022/09/09 01:13:34;;;;;;;2.83;1.00;;;;;;;;;;8324223;28;21080;-57
2022/09/09 01:17:38;;;;;;;1.63;0.90;;;;;;;;;;8323663;28;20047;-59
2022/09/09 01:21:38;;;;;;;;;;;;;;;;;;8325607;28;20148;-58
2022/09/09 01:25:57;;;;;;;7.38;1.20;;;;;;;;;;8320714;28;20340;-58
2022/09/09 01:29:59;;;;;;;5.07;1.00;;;;;;;;;;8324472;28;20033;-58
2022/09/09 01:33:59;;;;;;;2.13;0.63;;;;;;;;;;8321850;28;20037;-57
2022/09/09 01:37:59;;;;;;;4.97;0.97;;;;;;;;;;8327052;28;20477;-58
2022/09/09 01:42:00;;;;;;;2.38;0.70;;;;;;;;;;8322674;28;20032;-57
2022/09/09 01:46:01;;;;;;;2.95;0.88;;;;;;;;;;8321437;28;20037;-58
2022/09/09 01:50:02;;;;;;;3.72;0.98;;;;;;;;;;8323714;28;20117;-59
2022/09/09 01:54:03;;;;;;;5.50;1.13;;;;;;;;;;8328802;28;20029;-57
2022/09/09 01:58:09;;;;;;;3.78;0.90;;;;;;;;;;8332224;28;20119;-57
2022/09/09 02:02:12;;;;;;;3.90;0.90;;;;;;;;;;8330632;28;20041;-57
2022/09/09 02:06:30;;;;;;;3.20;0.98;;;;;;;;;;8327312;28;20071;-57
2022/09/09 02:10:32;;;;;;;4.18;0.80;;;;;;;;;;8331157;28;20025;-57
2022/09/09 02:14:36;;;;;;;5.38;0.90;;;;;;;;;;8327836;28;20731;-58
2022/09/09 02:18:48;;;;;;;2.10;0.85;;;;;;;;;;8327646;28;20049;-59
2022/09/09 02:22:50;;;;;;;2.60;0.77;;;;;;;;;;8326550;28;20803;-59
2022/09/09 02:26:52;;;;;;;3.40;0.80;;;;;;;;;;8327280;28;20025;-59
2022/09/09 02:30:54;;;;;;;8.10;1.13;;;;;;;;;;8329916;28;20026;-58
2022/09/09 02:34:57;;;;;;;3.20;0.93;;;;;;;;;;8326100;28;20059;-57
2022/09/09 02:38:57;;;;;;;6.30;1.08;;;;;;;;;;8327561;28;20033;-59
2022/09/09 02:42:59;;;;;;;3.27;1.00;;;;;;;;;;8330251;28;20044;-58
2022/09/09 02:47:02;;;;;;;7.50;0.98;;;;;;;;;;8325967;28;20025;-57
2022/09/09 02:51:09;;;;;;;4.00;0.90;;;;;;;;;;8328585;28;20128;-59
2022/09/09 02:55:16;;;;;;;4.50;1.08;;;;;;;;;;8325530;28;20040;-58
2022/09/09 02:59:17;;;;;;;3.95;1.30;;;;;;;;;;8328807;28;20029;-58
2022/09/09 03:03:17;;;;;;;1.67;0.70;;;;;;;;;;8326852;28;20041;-57
2022/09/09 03:07:18;;;;;;;3.53;1.15;;;;;;;;;;8330069;28;20085;-57
2022/09/09 03:11:19;;;;;;;6.07;0.90;;;;;;;;;;8326497;28;20039;-57
2022/09/09 03:15:19;;;;;;;3.17;0.98;;;;;;;;;;8325409;28;20414;-57
2022/09/09 03:19:19;;;;;;;2.27;0.83;;;;;;;;;;8329822;28;20017;-58
2022/09/09 03:23:21;;;;;;;3.70;1.00;;;;;;;;;;8324979;28;20131;-57
2022/09/09 03:27:21;;;;;;;2.75;0.93;;;;;;;;;;8325236;28;20040;-57
2022/09/09 03:31:22;;;;;;;3.50;0.70;;;;;;;;;;8322012;28;20501;-58
2022/09/09 03:35:22;;;;;;;4.20;1.00;;;;;;;;;;8328400;28;20048;-58
2022/09/09 03:39:22;;;;;;;3.58;0.95;;;;;;;;;;8340314;28;20276;-57
2022/09/09 03:43:23;;;;;;;2.42;0.90;;;;;;;;;;8327941;28;20140;-57
2022/09/09 03:47:23;;;;;;;4.50;0.90;;;;;;;;;;8323110;28;20028;-58
2022/09/09 03:51:24;;;;;;;1.77;0.80;;;;;;;;;;8327473;28;20029;-57
2022/09/09 03:55:24;;;;;;;3.60;0.93;;;;;;;;;;8324376;28;20038;-59
2022/09/09 03:59:25;;;;;;;6.17;0.77;;;;;;;;;;8327218;28;20025;-58
2022/09/09 04:03:25;;;;;;;5.97;0.80;;;;;;;;;;8324107;28;20159;-57
2022/09/09 04:07:27;;;;;;;6.43;1.15;;;;;;;;;;8327440;28;20125;-58
2022/09/09 04:11:27;;;;;;;3.08;0.80;;;;;;;;;;8322935;28;20032;-57
2022/09/09 04:15:27;;;;;;;4.32;0.88;;;;;;;;;;8325204;28;20517;-59
2022/09/09 04:19:28;;;;;;;2.88;0.75;;;;;;;;;;8323316;28;20146;-59
2022/09/09 04:23:33;;;;;;;3.42;0.95;;;;;;;;;;8325308;28;20044;-58
2022/09/09 04:27:33;;;;;;;3.92;0.90;;;;;;;;;;8325939;28;20055;-59
2022/09/09 04:31:34;;;;;;;3.03;0.93;;;;;;;;;;8325881;28;20042;-58
2022/09/09 04:35:34;;;;;;;4.43;0.90;;;;;;;;;;8324316;28;20021;-59
2022/09/09 04:39:35;;;;;;;3.97;0.80;;;;;;;;;;8324996;28;20049;-59
2022/09/09 04:43:35;;;;;;;3.78;0.80;;;;;;;;;;8324242;28;20040;-58
2022/09/09 04:47:35;;;;;;;1.85;0.80;;;;;;;;;;8323146;28;20052;-58
2022/09/09 04:51:35;;;;;;;3.75;0.90;;;;;;;;;;8325358;28;20106;-57
2022/09/09 04:55:36;;;;;;;2.90;1.10;;;;;;;;;;8325848;28;20052;-59
2022/09/09 04:59:36;;;;;;;6.97;1.48;;;;;;;;;;8328832;28;20028;-57
2022/09/09 05:03:37;;;;;;;3.65;1.15;;;;;;;;;;8322833;28;20038;-58
2022/09/09 05:07:37;;;;;;;2.55;0.82;;;;;;;;;;8323233;28;20021;-58
2022/09/09 05:11:38;;;;;;;5.60;1.23;;;;;;;;;;8323934;28;20094;-57
2022/09/09 05:15:38;;;;;;;6.35;1.30;;;;;;;;;;8321182;28;20099;-60
2022/09/09 05:19:38;;;;;;;1.65;0.90;;;;;;;;;;8324333;28;20056;-58
2022/09/09 05:23:38;;;;;;;2.00;0.90;;;;;;;;;;8321139;28;20078;-58
2022/09/09 05:27:39;;;;;;;5.13;1.10;;;;;;;;;;8328697;28;20021;-59
2022/09/09 05:31:39;;;;;;;5.63;1.10;;;;;;;;;;8315330;28;20572;-59
2022/09/09 05:35:39;;;;;;;4.07;1.20;;;;;;;;;;8330404;28;20024;-57
2022/09/09 05:39:39;;;;;;;4.03;1.10;;;;;;;;;;8330710;28;20032;-59
2022/09/09 05:43:39;;;;;;;5.63;1.30;;;;;;;;;;8324820;28;20104;-57
2022/09/09 05:47:40;;;;;;;2.80;0.93;;;;;;;;;;8326390;28;20646;-58
2022/09/09 05:51:40;;;;;;;2.78;1.00;;;;;;;;;;8325519;28;20028;-58
2022/09/09 05:55:40;;;;;;;4.07;1.08;;;;;;;;;;8329836;28;20031;-58
2022/09/09 05:59:40;;;;;;;2.83;0.90;;;;;;;;;;8327925;28;20028;-58
2022/09/09 06:03:41;;;;;;;4.65;1.10;;;;;;;;;;8323730;28;20294;-58
2022/09/09 06:07:43;;;;;;;2.50;1.08;;;;;;;;;;8327173;28;20033;-57
2022/09/09 06:11:43;;;;;;;5.63;1.38;;;;;;;;;;8323187;28;20854;-58
2022/09/09 06:15:50;;;;;;;1.87;1.40;;;;;;;;;;8327104;28;20789;-59
2022/09/09 06:19:52;;;;;;;5.05;1.33;;;;;;;;;;8323798;28;21021;-58
2022/09/09 06:23:52;;;;;;;6.82;1.30;;;;;;;;;;8326030;28;20546;-58
2022/09/09 06:27:53;;;;;;;3.50;1.35;;;;;;;;;;8319659;28;20575;-59
2022/09/09 06:31:53;;;;;;;7.72;1.55;;;;;;;;;;8326896;28;20044;-58
2022/09/09 06:35:54;;;;;;;5.18;1.20;;;;;;;;;;8325970;28;20802;-58
2022/09/09 06:39:54;;;;;;;3.88;1.20;;;;;;;;;;8322631;28;20036;-58
2022/09/09 06:43:57;;;;;;;6.68;1.67;;;;;;;;;;8324942;28;20991;-59
2022/09/09 06:47:58;;;;;;;6.60;1.77;;;;;;;;;;8326069;28;20038;-59
2022/09/09 06:51:58;;;;;;;4.00;1.40;;;;;;;;;;8327168;28;20075;-58
2022/09/09 06:56:01;;;;;;;6.82;1.20;;;;;;;;;;8327702;28;20033;-58
2022/09/09 07:00:01;;;;;;;6.60;1.30;;;;;;;;;;8324412;28;20040;-59
2022/09/09 07:04:04;;;;;;;10.20;1.60;;;;;;;;;;8325918;28;20069;-59
2022/09/09 07:08:04;;;;;;;2.50;1.20;;;;;;;;;;8326474;28;20056;-58
2022/09/09 07:12:05;;;;;;;5.38;1.30;;;;;;;;;;8324457;28;20039;-58
2022/09/09 07:16:06;;;;;;;4.50;1.45;;;;;;;;;;8325821;28;20046;-58
2022/09/09 07:20:25;;;;;;;6.78;1.20;;;;;;;;;;8334901;28;20033;-58
2022/09/09 07:24:25;;;;;;;6.07;1.30;;;;;;;;;;8321345;28;20060;-58
2022/09/09 07:28:27;;;;;;;4.07;1.30;;;;;;;;;;8325695;28;20032;-59
2022/09/09 07:32:27;;;;;;;5.97;1.52;;;;;;;;;;8322657;28;20076;-58
2022/09/09 07:36:32;;;;;;;6.60;1.30;;;;;;;;;;8323417;28;20503;-59
2022/09/09 07:40:33;;;;;;;3.28;1.10;;;;;;;;;;8321103;28;20278;-59
2022/09/09 07:44:35;;;;;;;7.65;1.42;;;;;;;;;;8325038;28;20032;-58
2022/09/09 07:48:35;;;;;;;6.05;1.50;;;;;;;;;;8326319;28;20032;-58
2022/09/09 07:52:35;;;;;;;9.30;1.97;;;;;;;;;;8319673;28;20332;-59
2022/09/09 07:56:37;;;;;;;4.67;1.50;;;;;;;;;;8322889;28;20029;-58
2022/09/09 08:00:37;;;;;;;6.20;1.75;;;;;;;;;;8320036;28;20267;-60
2022/09/09 08:04:38;;;;;;;7.82;1.50;;;;;;;;;;8322549;28;20028;-58
2022/09/09 08:08:38;;;;;;;9.15;1.52;;;;;;;;;;8319810;28;20036;-59
2022/09/09 08:12:38;;;;;;;4.88;1.50;;;;;;;;;;8325658;28;20029;-58
2022/09/09 08:16:41;;;;;;;5.47;1.60;;;;;;;;;;8319744;28;20048;-58
2022/09/09 08:20:42;;;;;;;3.78;1.13;;;;;;;;;;8324684;28;20374;-59
2022/09/09 08:24:42;;;;;;;2.78;1.08;;;;;;;;;;8325676;28;20043;-59
2022/09/09 08:28:42;;;;;;;4.10;1.17;;;;;;;;;;8325049;28;20098;-59
2022/09/09 08:32:43;;;;;;;5.90;1.50;;;;;;;;;;8323217;28;20116;-58
2022/09/09 08:36:44;;;;;;;4.38;1.20;;;;;;;;;;8319817;28;20491;-58
2022/09/09 08:40:49;;;;;;;3.72;1.33;;;;;;;;;;8323484;28;20032;-59
2022/09/09 08:45:05;;;;;;;8.23;1.50;;;;;;;;;;8325019;28;20087;-58
2022/09/09 08:49:14;;;;;;;4.03;1.42;;;;;;;;;;8270828;28;20046;-58
2022/09/09 08:53:16;;;;;;;4.32;1.23;;;;;;;;;;8268351;28;20037;-59
2022/09/09 08:57:27;;;;;;;4.00;1.23;;;;;;;;;;8271231;28;20030;-58
2022/09/09 09:01:31;;;;;;;4.30;1.48;;;;;;;;;;8271021;28;20042;-59
2022/09/09 09:05:35;;;;;;;5.45;1.45;;;;;;;;;;8277563;28;20030;-60
2022/09/09 09:09:58;;;;;;;5.85;1.52;;;;;;;;;;8274612;28;20039;-59
2022/09/09 09:14:07;;;;;;;7.53;1.60;;;;;;;;;;8276243;28;20123;-58
2022/09/09 09:18:08;;;;;;;5.80;1.77;;;;;;;;;;8277194;28;20048;-59
2022/09/09 09:22:22;;;;;;;6.57;1.52;;;;;;;;;;8276128;28;20830;-58
2022/09/09 09:26:26;;;;;;;7.68;1.40;;;;;;;;;;8276958;28;21194;-59
2022/09/09 09:30:47;;;;;;;9.15;1.27;;;;;;;;;;8275784;28;20938;-58
2022/09/09 09:34:58;;;;;;;8.48;1.35;;;;;;;;;;8267362;28;20047;-59
2022/09/09 09:38:59;;;;;;;5.10;1.25;;;;;;;;;;8276491;28;20044;-58
2022/09/09 09:43:00;;;;;;;3.78;1.15;;;;;;;;;;8274307;28;20025;-58
2022/09/09 09:47:08;;;;;;;5.07;1.30;;;;;;;;;;8275171;28;20053;-56
2022/09/09 09:51:10;;;;;;;7.25;1.30;;;;;;;;;;8275393;28;20038;-55
2022/09/09 09:55:13;;;;;;;4.38;1.27;;;;;;;;;;8274934;28;20057;-56
2022/09/09 09:59:28;;;;;;;5.00;1.40;;;;;;;;;;8275429;28;20033;-57
2022/09/09 10:03:30;;;;;;;4.05;1.10;;;;;;;;;;8275648;28;20064;-57
2022/09/09 10:07:31;;;;;;;5.75;1.25;;;;;;;;;;8274233;28;20030;-57
2022/09/09 10:16:35;;;;;;;4.45;1.13;;;;;;;;;;8223221;28;20504;-58
2022/09/09 10:20:38;;;;;;;5.80;1.25;;;;;;;;;;8274636;28;20390;-57
2022/09/09 10:24:52;;;;;;;4.65;1.23;;;;;;;;;;8271690;28;20029;-57
2022/09/09 10:28:56;;;;;;;5.55;1.23;;;;;;;;;;8271806;28;20235;-58
2022/09/09 10:33:05;;;;;;;4.07;1.20;;;;;;;;;;8270519;28;20140;-58
2022/09/09 10:37:15;;;;;;;4.22;1.10;;;;;;;;;;8274175;28;20127;-57
2022/09/09 10:41:19;;;;;;;5.57;1.35;;;;;;;;;;8271203;28;20030;-57
2022/09/09 10:45:34;;;;;;;3.40;1.17;;;;;;;;;;8273359;28;20033;-57
2022/09/09 10:49:40;;;;;;;5.03;1.27;;;;;;;;;;8275938;28;20518;-57
2022/09/09 10:54:03;;;;;;;5.70;1.10;;;;;;;;;;8272822;28;21023;-57
2022/09/09 10:58:04;;;;;;;;;;;;;;;;;;8267006;28;20042;-57
2022/09/09 11:02:15;;;;;;;2.75;0.93;;;;;;;;;;8270777;28;19967;-58
2022/09/09 11:06:18;;;;;;;4.55;1.40;;;;;;;;;;8272966;28;20045;-58
2022/09/09 11:10:18;;;;;;;;;;;;;;;;;;8274271;28;20388;-57
2022/09/09 11:14:27;;;;;;;7.35;1.50;;;;;;;;;;8272066;28;19939;-57
2022/09/09 11:18:29;;;;;;;4.03;1.00;;;;;;;;;;8270572;28;20037;-57
2022/09/09 11:22:32;;;;;;;4.32;1.42;;;;;;;;;;8273687;28;20452;-58
2022/09/09 11:26:37;;;;;;;2.90;1.00;;;;;;;;;;8273762;28;20033;-57
2022/09/09 11:30:46;;;;;;;4.63;1.27;;;;;;;;;;8267287;28;20511;-57
2022/09/09 11:34:53;;;;;;;3.75;1.15;;;;;;;;;;8273708;28;20084;-57
2022/09/09 11:39:00;;;;;;;4.32;1.02;;;;;;;;;;8272952;28;20026;-57
2022/09/09 11:43:12;;;;;;;6.18;1.10;;;;;;;;;;8289302;28;20033;-57
2022/09/09 11:47:21;;;;;;;4.72;0.98;;;;;;;;;;8273572;28;20036;-57
2022/09/09 11:51:25;;;;;;;4.10;1.10;;;;;;;;;;8270470;28;20061;-58
2022/09/09 11:55:31;;;;;;;4.72;1.70;;;;;;;;;;8271609;28;20152;-57
2022/09/09 11:59:32;;;;;;;5.47;0.80;;;;;;;;;;8274668;28;20172;-58
2022/09/09 12:03:44;;;;;;;2.22;0.70;;;;;;;;;;8272257;28;20045;-57
2022/09/09 12:07:53;;;;;;;1.38;0.57;;;;;;;;;;8271003;28;20022;-58
2022/09/09 12:12:05;;;;;;;1.75;0.55;;;;;;;;;;8271058;28;20144;-57
2022/09/09 12:16:25;;;;;;;1.73;0.60;;;;;;;;;;8274207;28;20044;-58
2022/09/09 12:20:40;;;;;;;1.30;0.60;;;;;;;;;;8271590;28;20121;-57
2022/09/09 12:24:44;;;;;;;1.70;0.40;;;;;;;;;;8288388;28;20025;-58
2022/09/09 12:28:50;;;;;;;0.82;0.43;;;;;;;;;;8286764;28;20473;-59
2022/09/09 12:33:00;;;;;;;1.40;0.50;;;;;;;;;;8272762;28;20072;-59
2022/09/09 12:37:06;;;;;;;0.60;0.50;;;;;;;;;;8269633;28;20128;-58
2022/09/09 12:41:19;;;;;;;1.60;0.50;;;;;;;;;;8270012;28;20116;-58
2022/09/09 12:45:20;;;;;;;2.63;0.80;;;;;;;;;;8272617;28;20033;-60
2022/09/09 12:49:29;;;;;;;3.22;0.90;;;;;;;;;;8271903;28;20025;-60
2022/09/09 12:53:41;;;;;;;1.35;0.80;;;;;;;;;;8271494;28;20026;-58
2022/09/09 12:57:43;;;;;;;1.27;0.50;;;;;;;;;;8295083;28;20053;-59
2022/09/09 13:01:43;;;;;;;2.20;0.70;;;;;;;;;;8270011;28;20064;-58
2022/09/09 13:05:43;;;;;;;2.85;0.80;;;;;;;;;;8272184;28;20029;-59
2022/09/09 13:09:44;;;;;;;3.35;0.80;;;;;;;;;;8271746;28;20108;-58
2022/09/09 13:13:50;;;;;;;2.63;0.95;;;;;;;;;;8270555;28;20057;-57
2022/09/09 13:17:55;;;;;;;1.92;0.80;;;;;;;;;;8310584;28;20148;-58
2022/09/09 13:21:55;;;;;;;3.50;0.95;;;;;;;;;;8305237;28;20124;-57
2022/09/09 13:25:57;;;;;;;2.50;1.00;;;;;;;;;;8301496;28;20521;-59
2022/09/09 13:29:57;;;;;;;2.22;0.85;;;;;;;;;;8305318;28;20279;-59
2022/09/09 13:33:57;;;;;;;2.03;0.80;;;;;;;;;;8286744;28;20886;-58
2022/09/09 13:37:58;;;;;;;1.88;0.80;;;;;;;;;;8292486;28;20945;-57
2022/09/09 13:41:58;;;;;;;4.30;0.68;;;;;;;;;;8292082;28;20041;-58
2022/09/09 13:45:59;;;;;;;2.00;0.80;;;;;;;;;;8292232;28;20041;-58
2022/09/09 13:50:19;;;;;;;1.90;1.00;;;;;;;;;;8295068;28;20040;-57
2022/09/09 13:54:20;;;;;;;4.20;0.88;;;;;;;;;;8296392;28;20040;-57
2022/09/09 13:58:21;;;;;;;1.52;0.77;;;;;;;;;;8295940;28;20028;-57
2022/09/09 14:02:22;;;;;;;3.55;0.90;;;;;;;;;;8294312;28;20036;-57
2022/09/09 14:06:24;;;;;;;2.45;1.00;;;;;;;;;;8297817;28;20030;-59
2022/09/09 14:10:24;;;;;;;1.60;0.90;;;;;;;;;;8291652;28;20024;-57
2022/09/09 14:14:25;;;;;;;2.22;0.82;;;;;;;;;;8298109;28;20032;-57
2022/09/09 14:18:25;;;;;;;3.58;1.00;;;;;;;;;;8293235;28;20040;-57
2022/09/09 14:22:25;;;;;;;2.08;0.80;;;;;;;;;;8295651;28;20037;-57
2022/09/09 14:26:26;;;;;;;2.55;1.00;;;;;;;;;;8298981;28;20103;-57
2022/09/09 14:30:26;;;;;;;2.90;1.00;;;;;;;;;;8295303;28;20045;-59
2022/09/09 14:34:26;;;;;;;3.00;0.85;;;;;;;;;;8289730;28;20064;-59
2022/09/09 14:38:33;;;;;;;3.20;1.30;;;;;;;;;;8289118;28;20144;-59
2022/09/09 14:42:34;;;;;;;2.00;0.70;;;;;;;;;;8287744;28;20440;-59
2022/09/09 14:46:34;;;;;;;2.75;0.80;;;;;;;;;;8289053;28;20618;-60
2022/09/09 14:50:39;;;;;;;3.90;0.77;;;;;;;;;;8292614;28;20133;-57
2022/09/09 14:54:40;;;;;;;3.65;0.90;;;;;;;;;;8294852;28;20383;-57
2022/09/09 14:58:40;;;;;;;3.13;0.97;;;;;;;;;;8284266;28;20462;-57
2022/09/09 15:02:40;;;;;;;2.30;0.80;;;;;;;;;;8289505;28;20380;-58
2022/09/09 15:06:42;;;;;;;2.10;0.70;;;;;;;;;;8291356;28;20013;-58
2022/09/09 15:10:44;;;;;;;1.50;0.80;;;;;;;;;;8292010;28;20438;-57
2022/09/09 15:14:45;;;;;;;1.30;0.90;;;;;;;;;;8292529;28;20057;-57
2022/09/09 15:18:46;;;;;;;1.85;0.90;;;;;;;;;;8294069;28;20063;-57
2022/09/09 15:22:46;;;;;;;2.55;1.00;;;;;;;;;;8288993;28;20108;-57
2022/09/09 15:26:46;;;;;;;2.50;1.00;;;;;;;;;;8287659;28;20060;-57
2022/09/09 15:30:51;;;;;;;3.40;0.82;;;;;;;;;;8290791;28;20678;-57
2022/09/09 15:34:53;;;;;;;2.80;0.93;;;;;;;;;;8289703;28;20560;-57
2022/09/09 15:38:53;;;;;;;2.17;0.80;;;;;;;;;;8291596;28;20029;-57
2022/09/09 15:42:53;;;;;;;2.78;0.95;;;;;;;;;;8292297;28;20060;-57
2022/09/09 15:46:53;;;;;;;3.33;1.27;;;;;;;;;;8289462;28;20125;-58
2022/09/09 15:51:02;;;;;;;2.65;1.00;;;;;;;;;;8287256;28;20029;-58
2022/09/09 15:55:02;;;;;;;3.05;0.98;;;;;;;;;;8289145;28;20657;-57
2022/09/09 15:59:02;;;;;;;2.80;0.87;;;;;;;;;;8288854;28;20631;-57
2022/09/09 16:03:03;;;;;;;2.83;0.88;;;;;;;;;;8286524;28;20396;-57
2022/09/09 16:07:04;;;;;;;2.30;0.95;;;;;;;;;;8288950;28;20075;-57
2022/09/09 16:11:05;;;;;;;2.53;0.80;;;;;;;;;;8293838;28;20515;-57
2022/09/09 16:15:07;;;;;;;1.70;0.70;;;;;;;;;;8292614;28;20028;-58
2022/09/09 16:19:09;;;;;;;2.33;0.80;;;;;;;;;;8292211;28;20036;-59
2022/09/09 16:23:10;;;;;;;4.63;0.98;;;;;;;;;;8289630;28;20034;-56
2022/09/09 16:27:11;;;;;;;5.65;1.27;;;;;;;;;;8292160;28;20136;-57
2022/09/09 16:31:13;;;;;;;2.67;0.80;;;;;;;;;;8286360;28;20038;-56
2022/09/09 16:35:14;;;;;;;3.78;0.70;;;;;;;;;;8281477;28;20524;-57
2022/09/09 16:39:15;;;;;;;1.63;0.70;;;;;;;;;;8283365;28;20132;-57
2022/09/09 16:43:15;;;;;;;1.23;0.60;;;;;;;;;;8281361;28;20030;-57
2022/09/09 16:47:16;;;;;;;1.48;0.63;;;;;;;;;;8280416;28;20518;-57
2022/09/09 16:51:18;;;;;;;1.52;0.75;;;;;;;;;;8283374;28;20026;-57
2022/09/09 16:55:20;;;;;;;1.73;0.60;;;;;;;;;;8287901;28;20659;-57
2022/09/09 16:59:21;;;;;;;4.80;0.60;;;;;;;;;;8286701;28;20093;-57
2022/09/09 17:03:21;;;;;;;1.00;0.63;;;;;;;;;;8281879;28;20037;-57
2022/09/09 17:07:22;;;;;;;2.55;0.70;;;;;;;;;;8289093;28;20672;-57
2022/09/09 17:11:23;;;;;;;2.08;0.60;;;;;;;;;;8285455;28;20056;-57
2022/09/09 17:15:23;;;;;;;1.02;0.50;;;;;;;;;;8289050;28;20029;-61
2022/09/09 17:19:23;;;;;;;4.17;0.50;;;;;;;;;;8289035;28;20572;-57
2022/09/09 17:23:23;;;;;;;2.23;0.60;;;;;;;;;;8282973;28;20033;-57
2022/09/09 17:27:24;;;;;;;1.92;0.82;;;;;;;;;;8287852;28;20022;-57
2022/09/09 17:31:25;;;;;;;2.03;0.60;;;;;;;;;;8285980;28;20554;-56
2022/09/09 17:35:27;;;;;;;1.05;0.60;;;;;;;;;;8287889;28;20474;-57
2022/09/09 17:39:27;;;;;;;1.50;0.60;;;;;;;;;;8286376;28;20037;-57
2022/09/09 17:43:27;;;;;;;0.95;0.50;;;;;;;;;;8286645;28;20033;-57
2022/09/09 17:47:28;;;;;;;1.60;0.70;;;;;;;;;;8283022;28;20356;-57
2022/09/09 17:51:29;;;;;;;1.02;0.55;;;;;;;;;;8286187;28;20052;-56
2022/09/09 17:55:30;;;;;;;1.85;0.50;;;;;;;;;;8288458;28;20037;-57
2022/09/09 17:59:30;;;;;;;0.65;0.40;;;;;;;;;;8287197;28;20553;-57
2022/09/09 18:03:32;;;;;;;1.10;0.52;;;;;;;;;;8283845;28;20029;-57
2022/09/09 18:07:33;;;;;;;1.05;0.63;;;;;;;;;;8284852;28;20026;-57
2022/09/09 18:11:37;;;;;;;1.38;0.40;;;;;;;;;;8283908;28;20493;-57
2022/09/09 18:15:38;;;;;;;0.82;0.40;;;;;;;;;;8284616;28;20030;-58
2022/09/09 18:19:38;;;;;;;2.75;0.50;;;;;;;;;;8285257;28;20030;-57
2022/09/09 18:23:40;;;;;;;1.70;0.60;;;;;;;;;;8283578;28;20036;-56
2022/09/09 18:27:40;;;;;;;2.80;0.90;;;;;;;;;;8284295;28;20033;-57
2022/09/09 18:31:41;;;;;;;0.57;0.57;;;;;;;;;;8282602;28;20464;-56
2022/09/09 18:35:42;;;;;;;1.65;0.60;;;;;;;;;;8284023;28;20035;-57
2022/09/09 18:39:42;;;;;;;1.25;0.55;;;;;;;;;;8285026;28;20048;-57
2022/09/09 18:43:43;;;;;;;1.40;0.60;;;;;;;;;;8280975;28;20638;-57
2022/09/09 18:47:43;;;;;;;7.00;0.70;;;;;;;;;;8283433;28;20289;-57
2022/09/09 18:51:45;;;;;;;3.25;0.70;;;;;;;;;;8282161;28;20025;-57
2022/09/09 18:55:45;;;;;;;1.75;0.70;;;;;;;;;;8289540;28;20049;-57
2022/09/09 18:59:48;;;;;;;1.55;0.60;;;;;;;;;;8284871;28;20057;-58
2022/09/09 19:03:48;;;;;;;1.15;0.57;;;;;;;;;;8280910;28;20308;-57
2022/09/09 19:07:48;;;;;;;0.90;0.60;;;;;;;;;;8282176;28;20053;-57
2022/09/09 19:11:49;;;;;;;2.95;0.60;;;;;;;;;;8284847;28;20580;-57
2022/09/09 19:15:49;;;;;;;2.15;0.80;;;;;;;;;;8282241;28;20033;-57
2022/09/09 19:19:50;;;;;;;4.75;0.90;;;;;;;;;;8284804;28;20020;-57
2022/09/09 19:23:54;;;;;;;2.05;0.60;;;;;;;;;;8280427;28;20063;-57
2022/09/09 19:27:55;;;;;;;2.20;0.77;;;;;;;;;;8281519;28;20487;-57
2022/09/09 19:31:56;;;;;;;1.10;0.60;;;;;;;;;;8282441;28;20041;-57
2022/09/09 19:36:03;;;;;;;2.83;0.70;;;;;;;;;;8281884;28;20025;-57
2022/09/09 19:40:06;;;;;;;1.38;0.63;;;;;;;;;;8283404;28;20033;-57
2022/09/09 19:44:10;;;;;;;0.80;0.50;;;;;;;;;;8283471;28;20483;-56
2022/09/09 19:48:11;;;;;;;0.60;0.60;;;;;;;;;;8281705;28;20567;-57
2022/09/09 19:52:11;;;;;;;1.80;0.70;;;;;;;;;;8279509;28;20480;-57
2022/09/09 19:56:12;;;;;;;1.65;0.50;;;;;;;;;;8274880;28;20033;-57
2022/09/09 20:00:12;;;;;;;1.38;0.50;;;;;;;;;;8260076;28;20040;-57
2022/09/09 20:04:13;;;;;;;1.42;0.55;;;;;;;;;;8280801;28;20685;-57
2022/09/09 20:08:13;;;;;;;1.42;0.80;;;;;;;;;;8282334;28;20018;-57
2022/09/09 20:12:13;;;;;;;0.47;0.47;;;;;;;;;;8280887;28;20029;-59
2022/09/09 20:16:15;;;;;;;0.40;0.40;;;;;;;;;;8279556;28;20298;-57
2022/09/09 20:20:15;;;;;;;1.08;0.60;;;;;;;;;;8281447;28;20037;-57
2022/09/09 20:24:17;;;;;;;1.60;0.50;;;;;;;;;;8283317;28;20071;-57
2022/09/09 20:28:19;;;;;;;1.98;0.70;;;;;;;;;;8282980;28;20080;-57
2022/09/09 20:32:21;;;;;;;2.20;0.77;;;;;;;;;;8280349;28;20140;-57
2022/09/09 20:36:23;;;;;;;4.55;0.68;;;;;;;;;;8283965;28;20048;-57
2022/09/09 20:40:24;;;;;;;1.07;0.63;;;;;;;;;;8286926;28;20790;-57
2022/09/09 20:44:24;;;;;;;1.38;0.80;;;;;;;;;;8284491;28;20515;-57
2022/09/09 20:48:25;;;;;;;0.90;0.70;;;;;;;;;;8282487;28;20033;-57
2022/09/09 20:52:25;;;;;;;1.95;0.90;;;;;;;;;;8279855;28;20028;-57
2022/09/09 20:56:26;;;;;;;1.25;0.60;;;;;;;;;;8280745;28;20018;-57
2022/09/09 21:00:28;;;;;;;1.55;0.65;;;;;;;;;;8284427;28;20600;-57
2022/09/09 21:04:30;;;;;;;1.83;0.77;;;;;;;;;;8282126;28;20033;-57
2022/09/09 21:08:30;;;;;;;2.05;0.82;;;;;;;;;;8286172;28;20036;-57
2022/09/09 21:12:31;;;;;;;1.85;0.95;;;;;;;;;;8294986;28;20113;-57
2022/09/09 21:16:31;;;;;;;1.70;0.80;;;;;;;;;;8289788;28;20046;-57
2022/09/09 21:20:32;;;;;;;2.63;0.90;;;;;;;;;;8292999;28;20026;-59
2022/09/09 21:24:33;;;;;;;1.85;0.88;;;;;;;;;;8288441;28;20025;-57
2022/09/09 21:28:34;;;;;;;1.85;0.82;;;;;;;;;;8291891;28;20029;-57
2022/09/09 21:32:35;;;;;;;2.47;1.00;;;;;;;;;;8291527;28;20504;-57
2022/09/09 21:36:35;;;;;;;2.72;0.85;;;;;;;;;;8293580;28;20025;-57
2022/09/09 21:40:37;;;;;;;2.25;0.82;;;;;;;;;;8291057;28;20116;-57
2022/09/09 21:44:37;;;;;;;1.17;0.80;;;;;;;;;;8292360;28;20474;-57
2022/09/09 21:48:37;;;;;;;1.33;0.70;;;;;;;;;;8289667;28;20068;-57
2022/09/09 21:52:37;;;;;;;2.97;0.98;;;;;;;;;;8291936;28;20140;-57
2022/09/09 21:56:38;;;;;;;2.63;0.80;;;;;;;;;;8292527;28;20390;-56
2022/09/09 22:00:43;;;;;;;2.05;0.82;;;;;;;;;;8292995;28;20121;-57
2022/09/09 22:04:44;;;;;;;3.35;1.10;;;;;;;;;;8292381;28;20552;-57
2022/09/09 22:08:45;;;;;;;1.33;0.75;;;;;;;;;;8294269;28;20458;-59
2022/09/09 22:12:45;;;;;;;3.97;0.80;;;;;;;;;;8295584;28;20068;-56
2022/09/09 22:16:46;;;;;;;3.72;1.27;;;;;;;;;;8297836;28;20046;-57
2022/09/09 22:20:46;;;;;;;3.58;1.00;;;;;;;;;;8294074;28;20032;-57
2022/09/09 22:24:47;;;;;;;5.45;1.20;;;;;;;;;;8294045;28;20475;-57
2022/09/09 22:28:48;;;;;;;5.28;1.00;;;;;;;;;;8298057;28;20038;-57
2022/09/09 22:32:49;;;;;;;1.85;1.08;;;;;;;;;;8297706;28;20129;-56
2022/09/09 22:36:50;;;;;;;4.15;0.93;;;;;;;;;;8298316;28;20087;-57
2022/09/09 22:40:50;;;;;;;6.70;0.93;;;;;;;;;;8296440;28;20037;-56
2022/09/09 22:44:50;;;;;;;4.30;1.00;;;;;;;;;;8295794;28;20029;-57
2022/09/09 22:48:51;;;;;;;5.03;1.20;;;;;;;;;;8299362;28;20680;-57
2022/09/09 22:52:51;;;;;;;3.40;0.80;;;;;;;;;;8293895;28;20032;-57
2022/09/09 22:56:51;;;;;;;4.78;1.10;;;;;;;;;;8295500;28;20029;-57
2022/09/09 23:00:54;;;;;;;2.08;1.10;;;;;;;;;;8294318;28;20061;-56
2022/09/09 23:04:57;;;;;;;3.03;1.30;;;;;;;;;;8297024;28;20556;-57
2022/09/09 23:08:59;;;;;;;1.93;1.10;;;;;;;;;;8294089;28;20112;-56
2022/09/09 23:12:59;;;;;;;3.58;1.00;;;;;;;;;;8296903;28;20607;-56
2022/09/09 23:17:01;;;;;;;6.18;1.00;;;;;;;;;;8296723;28;20047;-56
2022/09/09 23:21:02;;;;;;;4.60;1.15;;;;;;;;;;8296427;28;20057;-56
2022/09/09 23:25:03;;;;;;;3.22;1.38;;;;;;;;;;8298749;28;20026;-57
2022/09/09 23:29:03;;;;;;;2.30;1.20;;;;;;;;;;8295162;28;20482;-56
2022/09/09 23:33:04;;;;;;;3.42;1.20;;;;;;;;;;8295211;28;20041;-57
2022/09/09 23:37:05;;;;;;;3.67;1.25;;;;;;;;;;8294025;28;20029;-57
2022/09/09 23:41:07;;;;;;;5.80;1.40;;;;;;;;;;8294352;28;20025;-57
2022/09/09 23:45:07;;;;;;;2.70;1.30;;;;;;;;;;8297648;28;20072;-57
2022/09/09 23:49:08;;;;;;;1.85;1.10;;;;;;;;;;8293779;28;20906;-58
2022/09/09 23:53:11;;;;;;;1.60;1.10;;;;;;;;;;8297163;28;20175;-56
2022/09/09 23:57:12;;;;;;;2.35;1.15;;;;;;;;;;8296178;28;20071;-57
